sensor_id;sensor_type;location;lat;lon;timestamp;P1;durP1;ratioP1;P2;durP2;ratioP2
39846;SDS011;25517;52.422;10.782;2023-08-31T00:00:08;12.75;;;9.80;;
39846;SDS011;25517;52.422;10.782;2023-08-31T00:02:35;14.02;;;10.50;;
39846;SDS011;25517;52.422;10.782;2023-08-31T00:05:01;11.88;;;9.32;;
39846;SDS011;25517;52.422;10.782;2023-08-31T00:07:26;13.48;;;10.15;;
39846;SDS011;25517;52.422;10.782;2023-08-31T00:09:52;12.35;;;9.25;;
39846;SDS011;25517;52.422;10.782;2023-08-31T00:12:18;11.82;;;9.38;;
39846;SDS011;25517;52.422;10.782;2023-08-31T00:14:44;14.25;;;10.73;;
39846;SDS011;25517;52.422;10.782;2023-08-31T00:17:09;13.55;;;11.10;;
39846;SDS011;25517;52.422;10.782;2023-08-31T00:19:35;15.23;;;9.95;;
39846;SDS011;25517;52.422;10.782;2023-08-31T00:22:00;14.05;;;9.90;;
39846;SDS011;25517;52.422;10.782;2023-08-31T00:24:26;17.10;;;11.55;;
39846;SDS011;25517;52.422;10.782;2023-08-31T00:26:56;14.15;;;9.98;;
39846;SDS011;25517;52.422;10.782;2023-08-31T00:29:22;13.63;;;11.13;;
39846;SDS011;25517;52.422;10.782;2023-08-31T00:31:48;13.60;;;9.38;;
39846;SDS011;25517;52.422;10.782;2023-08-31T00:34:16;20.00;;;11.00;;
39846;SDS011;25517;52.422;10.782;2023-08-31T00:36:42;18.45;;;12.13;;
39846;SDS011;25517;52.422;10.782;2023-08-31T00:39:08;16.38;;;11.88;;
39846;SDS011;25517;52.422;10.782;2023-08-31T00:41:35;15.88;;;11.10;;
39846;SDS011;25517;52.422;10.782;2023-08-31T00:44:01;14.77;;;12.13;;
39846;SDS011;25517;52.422;10.782;2023-08-31T00:46:29;16.48;;;11.57;;
39846;SDS011;25517;52.422;10.782;2023-08-31T00:48:56;23.98;;;12.40;;
39846;SDS011;25517;52.422;10.782;2023-08-31T00:51:22;19.15;;;12.50;;
39846;SDS011;25517;52.422;10.782;2023-08-31T00:53:48;18.17;;;11.57;;
39846;SDS011;25517;52.422;10.782;2023-08-31T00:56:18;17.55;;;12.95;;
39846;SDS011;25517;52.422;10.782;2023-08-31T00:58:44;17.65;;;11.73;;
39846;SDS011;25517;52.422;10.782;2023-08-31T01:01:12;17.80;;;12.10;;
39846;SDS011;25517;52.422;10.782;2023-08-31T01:04:15;20.95;;;12.27;;
39846;SDS011;25517;52.422;10.782;2023-08-31T01:06:53;16.77;;;12.90;;
39846;SDS011;25517;52.422;10.782;2023-08-31T01:12:40;18.42;;;12.77;;
39846;SDS011;25517;52.422;10.782;2023-08-31T01:14:56;18.27;;;12.73;;
39846;SDS011;25517;52.422;10.782;2023-08-31T01:17:28;19.00;;;12.65;;
39846;SDS011;25517;52.422;10.782;2023-08-31T01:19:55;23.00;;;15.02;;
39846;SDS011;25517;52.422;10.782;2023-08-31T01:24:56;19.73;;;14.00;;
39846;SDS011;25517;52.422;10.782;2023-08-31T01:27:23;22.73;;;14.45;;
39846;SDS011;25517;52.422;10.782;2023-08-31T01:29:49;17.70;;;12.88;;
39846;SDS011;25517;52.422;10.782;2023-08-31T01:32:14;19.55;;;14.00;;
39846;SDS011;25517;52.422;10.782;2023-08-31T01:34:40;19.98;;;12.70;;
39846;SDS011;25517;52.422;10.782;2023-08-31T01:37:08;20.15;;;13.80;;
39846;SDS011;25517;52.422;10.782;2023-08-31T01:39:46;23.17;;;14.40;;
39846;SDS011;25517;52.422;10.782;2023-08-31T01:42:16;25.17;;;14.40;;
39846;SDS011;25517;52.422;10.782;2023-08-31T01:44:42;24.33;;;14.02;;
39846;SDS011;25517;52.422;10.782;2023-08-31T01:47:09;20.17;;;13.65;;
39846;SDS011;25517;52.422;10.782;2023-08-31T01:49:39;20.40;;;14.30;;
39846;SDS011;25517;52.422;10.782;2023-08-31T01:52:05;19.25;;;13.35;;
39846;SDS011;25517;52.422;10.782;2023-08-31T01:54:31;21.63;;;14.02;;
39846;SDS011;25517;52.422;10.782;2023-08-31T01:56:57;17.33;;;13.20;;
39846;SDS011;25517;52.422;10.782;2023-08-31T01:59:23;25.17;;;14.10;;
39846;SDS011;25517;52.422;10.782;2023-08-31T02:01:48;20.23;;;13.65;;
39846;SDS011;25517;52.422;10.782;2023-08-31T02:04:14;18.40;;;13.48;;
39846;SDS011;25517;52.422;10.782;2023-08-31T02:06:39;19.42;;;14.10;;
39846;SDS011;25517;52.422;10.782;2023-08-31T02:09:06;20.98;;;14.20;;
39846;SDS011;25517;52.422;10.782;2023-08-31T02:11:31;20.88;;;13.20;;
39846;SDS011;25517;52.422;10.782;2023-08-31T02:14:00;18.85;;;13.13;;
39846;SDS011;25517;52.422;10.782;2023-08-31T02:16:25;23.67;;;13.88;;
39846;SDS011;25517;52.422;10.782;2023-08-31T02:18:51;24.83;;;13.45;;
39846;SDS011;25517;52.422;10.782;2023-08-31T02:21:16;21.08;;;13.60;;
39846;SDS011;25517;52.422;10.782;2023-08-31T02:23:42;23.75;;;13.38;;
39846;SDS011;25517;52.422;10.782;2023-08-31T02:26:07;22.83;;;15.68;;
39846;SDS011;25517;52.422;10.782;2023-08-31T02:28:33;22.90;;;13.80;;
39846;SDS011;25517;52.422;10.782;2023-08-31T02:30:59;23.63;;;15.48;;
39846;SDS011;25517;52.422;10.782;2023-08-31T02:33:26;19.67;;;13.75;;
39846;SDS011;25517;52.422;10.782;2023-08-31T02:35:51;17.33;;;13.63;;
39846;SDS011;25517;52.422;10.782;2023-08-31T02:38:18;23.63;;;15.15;;
39846;SDS011;25517;52.422;10.782;2023-08-31T02:40:45;21.58;;;15.13;;
39846;SDS011;25517;52.422;10.782;2023-08-31T02:43:12;21.13;;;14.43;;
39846;SDS011;25517;52.422;10.782;2023-08-31T02:45:38;21.15;;;13.98;;
39846;SDS011;25517;52.422;10.782;2023-08-31T02:48:03;17.45;;;12.88;;
39846;SDS011;25517;52.422;10.782;2023-08-31T02:50:31;23.15;;;14.45;;
39846;SDS011;25517;52.422;10.782;2023-08-31T02:52:57;27.02;;;15.50;;
39846;SDS011;25517;52.422;10.782;2023-08-31T02:55:22;22.88;;;15.43;;
39846;SDS011;25517;52.422;10.782;2023-08-31T02:57:48;24.67;;;15.02;;
39846;SDS011;25517;52.422;10.782;2023-08-31T03:00:13;30.75;;;15.82;;
39846;SDS011;25517;52.422;10.782;2023-08-31T03:02:40;24.60;;;15.40;;
39846;SDS011;25517;52.422;10.782;2023-08-31T03:05:05;18.70;;;14.48;;
39846;SDS011;25517;52.422;10.782;2023-08-31T03:07:31;21.92;;;14.82;;
39846;SDS011;25517;52.422;10.782;2023-08-31T03:09:57;25.80;;;16.10;;
39846;SDS011;25517;52.422;10.782;2023-08-31T03:12:22;28.25;;;17.20;;
39846;SDS011;25517;52.422;10.782;2023-08-31T03:14:48;28.40;;;18.10;;
39846;SDS011;25517;52.422;10.782;2023-08-31T03:17:14;26.63;;;15.65;;
39846;SDS011;25517;52.422;10.782;2023-08-31T03:19:39;28.50;;;17.10;;
39846;SDS011;25517;52.422;10.782;2023-08-31T03:22:05;28.30;;;16.77;;
39846;SDS011;25517;52.422;10.782;2023-08-31T03:24:31;30.70;;;17.08;;
39846;SDS011;25517;52.422;10.782;2023-08-31T03:26:57;26.40;;;17.45;;
39846;SDS011;25517;52.422;10.782;2023-08-31T03:29:23;26.67;;;16.73;;
39846;SDS011;25517;52.422;10.782;2023-08-31T03:31:48;28.67;;;17.05;;
39846;SDS011;25517;52.422;10.782;2023-08-31T03:34:14;27.55;;;16.75;;
39846;SDS011;25517;52.422;10.782;2023-08-31T03:36:40;26.33;;;16.20;;
39846;SDS011;25517;52.422;10.782;2023-08-31T03:39:06;30.33;;;16.48;;
39846;SDS011;25517;52.422;10.782;2023-08-31T03:41:31;25.83;;;16.40;;
39846;SDS011;25517;52.422;10.782;2023-08-31T03:43:57;34.30;;;18.90;;
39846;SDS011;25517;52.422;10.782;2023-08-31T03:46:22;30.33;;;16.80;;
39846;SDS011;25517;52.422;10.782;2023-08-31T03:48:49;29.63;;;17.88;;
39846;SDS011;25517;52.422;10.782;2023-08-31T03:51:14;32.03;;;17.15;;
39846;SDS011;25517;52.422;10.782;2023-08-31T03:53:40;27.65;;;16.92;;
39846;SDS011;25517;52.422;10.782;2023-08-31T03:56:05;26.58;;;17.10;;
39846;SDS011;25517;52.422;10.782;2023-08-31T03:58:31;27.13;;;17.33;;
39846;SDS011;25517;52.422;10.782;2023-08-31T04:00:56;22.08;;;14.10;;
39846;SDS011;25517;52.422;10.782;2023-08-31T04:03:22;33.10;;;18.42;;
39846;SDS011;25517;52.422;10.782;2023-08-31T04:05:53;26.80;;;17.58;;
39846;SDS011;25517;52.422;10.782;2023-08-31T04:10:45;25.27;;;15.80;;
39846;SDS011;25517;52.422;10.782;2023-08-31T04:13:10;27.48;;;16.67;;
39846;SDS011;25517;52.422;10.782;2023-08-31T04:15:36;30.35;;;16.60;;
39846;SDS011;25517;52.422;10.782;2023-08-31T04:18:01;38.72;;;18.23;;
39846;SDS011;25517;52.422;10.782;2023-08-31T04:20:27;31.30;;;16.75;;
39846;SDS011;25517;52.422;10.782;2023-08-31T04:22:53;28.58;;;15.32;;
39846;SDS011;25517;52.422;10.782;2023-08-31T04:25:19;27.65;;;18.13;;
39846;SDS011;25517;52.422;10.782;2023-08-31T04:27:44;24.65;;;15.82;;
39846;SDS011;25517;52.422;10.782;2023-08-31T04:30:11;33.38;;;17.67;;
39846;SDS011;25517;52.422;10.782;2023-08-31T04:32:37;30.50;;;16.05;;
39846;SDS011;25517;52.422;10.782;2023-08-31T04:35:03;26.08;;;15.85;;
39846;SDS011;25517;52.422;10.782;2023-08-31T04:37:30;25.98;;;17.20;;
39846;SDS011;25517;52.422;10.782;2023-08-31T04:39:56;24.95;;;15.63;;
39846;SDS011;25517;52.422;10.782;2023-08-31T04:42:22;24.42;;;16.10;;
39846;SDS011;25517;52.422;10.782;2023-08-31T04:44:48;25.67;;;16.42;;
39846;SDS011;25517;52.422;10.782;2023-08-31T04:47:14;25.55;;;16.17;;
39846;SDS011;25517;52.422;10.782;2023-08-31T04:49:40;28.00;;;18.60;;
39846;SDS011;25517;52.422;10.782;2023-08-31T04:52:05;30.45;;;16.27;;
39846;SDS011;25517;52.422;10.782;2023-08-31T04:54:31;22.75;;;13.73;;
39846;SDS011;25517;52.422;10.782;2023-08-31T04:56:57;26.42;;;16.52;;
39846;SDS011;25517;52.422;10.782;2023-08-31T05:06:06;22.38;;;13.50;;
39846;SDS011;25517;52.422;10.782;2023-08-31T05:08:32;20.45;;;12.25;;
39846;SDS011;25517;52.422;10.782;2023-08-31T05:10:58;24.60;;;15.52;;
39846;SDS011;25517;52.422;10.782;2023-08-31T05:13:24;27.45;;;15.15;;
39846;SDS011;25517;52.422;10.782;2023-08-31T05:15:50;23.10;;;12.82;;
39846;SDS011;25517;52.422;10.782;2023-08-31T05:18:15;27.52;;;15.13;;
39846;SDS011;25517;52.422;10.782;2023-08-31T05:20:44;18.85;;;12.63;;
39846;SDS011;25517;52.422;10.782;2023-08-31T05:23:10;22.27;;;13.40;;
39846;SDS011;25517;52.422;10.782;2023-08-31T05:25:36;18.92;;;11.77;;
39846;SDS011;25517;52.422;10.782;2023-08-31T05:28:06;23.30;;;14.10;;
39846;SDS011;25517;52.422;10.782;2023-08-31T05:30:32;25.15;;;13.30;;
39846;SDS011;25517;52.422;10.782;2023-08-31T05:32:59;18.60;;;11.63;;
39846;SDS011;25517;52.422;10.782;2023-08-31T05:35:25;22.40;;;11.70;;
39846;SDS011;25517;52.422;10.782;2023-08-31T05:37:51;25.27;;;12.20;;
39846;SDS011;25517;52.422;10.782;2023-08-31T05:40:16;21.33;;;12.38;;
39846;SDS011;25517;52.422;10.782;2023-08-31T05:42:43;17.67;;;11.75;;
39846;SDS011;25517;52.422;10.782;2023-08-31T05:45:08;15.23;;;11.00;;
39846;SDS011;25517;52.422;10.782;2023-08-31T05:47:34;18.98;;;11.95;;
39846;SDS011;25517;52.422;10.782;2023-08-31T05:50:00;15.35;;;11.93;;
39846;SDS011;25517;52.422;10.782;2023-08-31T05:52:26;19.67;;;12.25;;
39846;SDS011;25517;52.422;10.782;2023-08-31T05:54:52;20.80;;;12.98;;
39846;SDS011;25517;52.422;10.782;2023-08-31T05:57:18;17.77;;;10.88;;
39846;SDS011;25517;52.422;10.782;2023-08-31T05:59:44;17.58;;;11.18;;
39846;SDS011;25517;52.422;10.782;2023-08-31T06:05:32;23.73;;;12.32;;
39846;SDS011;25517;52.422;10.782;2023-08-31T06:07:58;16.38;;;10.45;;
39846;SDS011;25517;52.422;10.782;2023-08-31T06:10:24;19.00;;;10.93;;
39846;SDS011;25517;52.422;10.782;2023-08-31T06:12:50;18.63;;;11.65;;
39846;SDS011;25517;52.422;10.782;2023-08-31T06:15:16;21.63;;;12.13;;
39846;SDS011;25517;52.422;10.782;2023-08-31T06:17:42;22.10;;;11.18;;
39846;SDS011;25517;52.422;10.782;2023-08-31T06:20:07;18.42;;;12.68;;
39846;SDS011;25517;52.422;10.782;2023-08-31T06:22:34;24.63;;;14.02;;
39846;SDS011;25517;52.422;10.782;2023-08-31T06:25:00;16.30;;;11.75;;
39846;SDS011;25517;52.422;10.782;2023-08-31T07:03:04;17.52;;;11.85;;
39846;SDS011;25517;52.422;10.782;2023-08-31T07:05:32;22.63;;;13.40;;
39846;SDS011;25517;52.422;10.782;2023-08-31T07:08:00;19.42;;;12.07;;
39846;SDS011;25517;52.422;10.782;2023-08-31T07:10:27;21.48;;;12.70;;
39846;SDS011;25517;52.422;10.782;2023-08-31T07:12:52;19.13;;;11.73;;
39846;SDS011;25517;52.422;10.782;2023-08-31T07:15:18;19.77;;;12.57;;
39846;SDS011;25517;52.422;10.782;2023-08-31T07:17:43;19.55;;;13.10;;
39846;SDS011;25517;52.422;10.782;2023-08-31T07:20:09;18.23;;;11.55;;
39846;SDS011;25517;52.422;10.782;2023-08-31T07:22:35;18.38;;;11.95;;
39846;SDS011;25517;52.422;10.782;2023-08-31T07:25:02;15.18;;;11.73;;
39846;SDS011;25517;52.422;10.782;2023-08-31T07:27:28;17.05;;;11.55;;
39846;SDS011;25517;52.422;10.782;2023-08-31T07:43:23;10.73;;;7.95;;
39846;SDS011;25517;52.422;10.782;2023-08-31T07:45:48;14.15;;;6.80;;
39846;SDS011;25517;52.422;10.782;2023-08-31T07:48:14;11.43;;;6.32;;
39846;SDS011;25517;52.422;10.782;2023-08-31T07:50:40;9.57;;;6.63;;
39846;SDS011;25517;52.422;10.782;2023-08-31T07:53:06;9.90;;;6.53;;
39846;SDS011;25517;52.422;10.782;2023-08-31T07:55:32;10.60;;;6.10;;
39846;SDS011;25517;52.422;10.782;2023-08-31T07:58:04;11.15;;;6.63;;
39846;SDS011;25517;52.422;10.782;2023-08-31T08:00:29;12.30;;;6.18;;
39846;SDS011;25517;52.422;10.782;2023-08-31T08:02:55;11.65;;;5.85;;
39846;SDS011;25517;52.422;10.782;2023-08-31T08:05:20;10.95;;;5.63;;
39846;SDS011;25517;52.422;10.782;2023-08-31T08:07:46;10.15;;;5.22;;
39846;SDS011;25517;52.422;10.782;2023-08-31T08:10:12;8.90;;;5.13;;
39846;SDS011;25517;52.422;10.782;2023-08-31T08:12:38;8.02;;;4.25;;
39846;SDS011;25517;52.422;10.782;2023-08-31T08:15:05;8.52;;;5.07;;
39846;SDS011;25517;52.422;10.782;2023-08-31T08:17:32;6.28;;;3.90;;
39846;SDS011;25517;52.422;10.782;2023-08-31T08:19:57;5.50;;;3.95;;
39846;SDS011;25517;52.422;10.782;2023-08-31T08:22:24;7.75;;;4.13;;
39846;SDS011;25517;52.422;10.782;2023-08-31T08:24:49;8.57;;;4.30;;
39846;SDS011;25517;52.422;10.782;2023-08-31T08:27:15;10.50;;;4.30;;
39846;SDS011;25517;52.422;10.782;2023-08-31T08:29:42;6.07;;;3.38;;
39846;SDS011;25517;52.422;10.782;2023-08-31T08:32:08;5.43;;;4.13;;
39846;SDS011;25517;52.422;10.782;2023-08-31T08:34:34;6.78;;;4.40;;
39846;SDS011;25517;52.422;10.782;2023-08-31T08:36:59;7.20;;;3.90;;
39846;SDS011;25517;52.422;10.782;2023-08-31T08:39:25;5.05;;;3.40;;
39846;SDS011;25517;52.422;10.782;2023-08-31T08:41:50;6.18;;;3.00;;
39846;SDS011;25517;52.422;10.782;2023-08-31T08:44:19;5.00;;;3.28;;
39846;SDS011;25517;52.422;10.782;2023-08-31T08:46:50;6.90;;;3.50;;
39846;SDS011;25517;52.422;10.782;2023-08-31T08:49:16;3.78;;;3.38;;
39846;SDS011;25517;52.422;10.782;2023-08-31T08:51:44;5.90;;;3.75;;
39846;SDS011;25517;52.422;10.782;2023-08-31T08:54:12;6.90;;;3.58;;
39846;SDS011;25517;52.422;10.782;2023-08-31T08:56:38;9.23;;;4.43;;
39846;SDS011;25517;52.422;10.782;2023-08-31T08:59:04;7.38;;;3.80;;
39846;SDS011;25517;52.422;10.782;2023-08-31T09:01:30;6.40;;;3.50;;
39846;SDS011;25517;52.422;10.782;2023-08-31T09:03:58;4.43;;;2.95;;
39846;SDS011;25517;52.422;10.782;2023-08-31T09:06:23;5.07;;;2.83;;
39846;SDS011;25517;52.422;10.782;2023-08-31T09:08:53;6.57;;;2.97;;
39846;SDS011;25517;52.422;10.782;2023-08-31T09:11:22;5.05;;;2.72;;
39846;SDS011;25517;52.422;10.782;2023-08-31T09:13:49;3.03;;;1.95;;
39846;SDS011;25517;52.422;10.782;2023-08-31T09:16:25;4.18;;;2.50;;
39846;SDS011;25517;52.422;10.782;2023-08-31T09:18:57;3.22;;;1.73;;
39846;SDS011;25517;52.422;10.782;2023-08-31T09:21:34;5.83;;;2.07;;
39846;SDS011;25517;52.422;10.782;2023-08-31T09:24:00;3.17;;;1.80;;
39846;SDS011;25517;52.422;10.782;2023-08-31T09:26:27;3.53;;;1.83;;
39846;SDS011;25517;52.422;10.782;2023-08-31T09:28:53;3.83;;;1.40;;
39846;SDS011;25517;52.422;10.782;2023-08-31T09:31:18;2.53;;;1.85;;
39846;SDS011;25517;52.422;10.782;2023-08-31T09:33:50;2.00;;;1.60;;
39846;SDS011;25517;52.422;10.782;2023-08-31T09:36:17;3.42;;;1.92;;
39846;SDS011;25517;52.422;10.782;2023-08-31T09:45:29;1.58;;;1.30;;
39846;SDS011;25517;52.422;10.782;2023-08-31T09:47:58;2.78;;;1.17;;
39846;SDS011;25517;52.422;10.782;2023-08-31T09:50:25;5.18;;;1.70;;
39846;SDS011;25517;52.422;10.782;2023-08-31T09:53:01;3.50;;;1.30;;
39846;SDS011;25517;52.422;10.782;2023-08-31T09:55:29;3.30;;;1.45;;
39846;SDS011;25517;52.422;10.782;2023-08-31T09:57:56;1.92;;;1.20;;
39846;SDS011;25517;52.422;10.782;2023-08-31T10:00:24;2.40;;;1.48;;
39846;SDS011;25517;52.422;10.782;2023-08-31T10:02:52;3.50;;;1.50;;
39846;SDS011;25517;52.422;10.782;2023-08-31T10:05:20;7.87;;;1.83;;
39846;SDS011;25517;52.422;10.782;2023-08-31T10:07:47;3.65;;;1.50;;
39846;SDS011;25517;52.422;10.782;2023-08-31T10:10:14;2.45;;;1.40;;
39846;SDS011;25517;52.422;10.782;2023-08-31T10:12:41;3.13;;;1.98;;
39846;SDS011;25517;52.422;10.782;2023-08-31T10:15:09;3.35;;;1.67;;
39846;SDS011;25517;52.422;10.782;2023-08-31T10:17:35;5.43;;;1.90;;
39846;SDS011;25517;52.422;10.782;2023-08-31T10:20:01;2.47;;;1.27;;
39846;SDS011;25517;52.422;10.782;2023-08-31T10:22:28;2.42;;;1.27;;
39846;SDS011;25517;52.422;10.782;2023-08-31T10:25:01;4.82;;;1.38;;
39846;SDS011;25517;52.422;10.782;2023-08-31T10:27:28;4.40;;;1.52;;
39846;SDS011;25517;52.422;10.782;2023-08-31T10:35:41;3.78;;;1.63;;
39846;SDS011;25517;52.422;10.782;2023-08-31T10:38:13;2.72;;;1.58;;
39846;SDS011;25517;52.422;10.782;2023-08-31T10:40:39;5.90;;;1.48;;
39846;SDS011;25517;52.422;10.782;2023-08-31T10:43:14;2.95;;;1.55;;
39846;SDS011;25517;52.422;10.782;2023-08-31T10:45:44;4.70;;;1.40;;
39846;SDS011;25517;52.422;10.782;2023-08-31T10:48:10;2.58;;;1.25;;
39846;SDS011;25517;52.422;10.782;2023-08-31T10:50:42;3.78;;;1.55;;
39846;SDS011;25517;52.422;10.782;2023-08-31T10:53:10;3.72;;;1.70;;
39846;SDS011;25517;52.422;10.782;2023-08-31T10:59:00;2.10;;;1.30;;
39846;SDS011;25517;52.422;10.782;2023-08-31T11:06:42;6.45;;;1.30;;
39846;SDS011;25517;52.422;10.782;2023-08-31T11:09:17;1.10;;;1.00;;
39846;SDS011;25517;52.422;10.782;2023-08-31T11:11:46;2.60;;;1.40;;
39846;SDS011;25517;52.422;10.782;2023-08-31T11:14:13;3.47;;;1.27;;
39846;SDS011;25517;52.422;10.782;2023-08-31T11:16:38;3.53;;;1.48;;
39846;SDS011;25517;52.422;10.782;2023-08-31T11:19:04;8.45;;;1.95;;
39846;SDS011;25517;52.422;10.782;2023-08-31T11:21:30;8.05;;;2.35;;
39846;SDS011;25517;52.422;10.782;2023-08-31T11:23:56;4.20;;;1.48;;
39846;SDS011;25517;52.422;10.782;2023-08-31T11:26:24;2.58;;;1.30;;
39846;SDS011;25517;52.422;10.782;2023-08-31T11:28:51;3.42;;;1.35;;
39846;SDS011;25517;52.422;10.782;2023-08-31T11:31:23;8.82;;;2.05;;
39846;SDS011;25517;52.422;10.782;2023-08-31T11:33:49;4.22;;;1.83;;
39846;SDS011;25517;52.422;10.782;2023-08-31T11:36:15;2.85;;;1.58;;
39846;SDS011;25517;52.422;10.782;2023-08-31T11:38:43;4.90;;;1.98;;
39846;SDS011;25517;52.422;10.782;2023-08-31T11:41:09;8.57;;;2.53;;
39846;SDS011;25517;52.422;10.782;2023-08-31T11:43:34;4.70;;;1.65;;
39846;SDS011;25517;52.422;10.782;2023-08-31T11:46:02;3.78;;;2.30;;
39846;SDS011;25517;52.422;10.782;2023-08-31T11:48:29;5.28;;;1.83;;
39846;SDS011;25517;52.422;10.782;2023-08-31T11:50:55;3.55;;;1.90;;
39846;SDS011;25517;52.422;10.782;2023-08-31T11:53:21;3.85;;;1.85;;
39846;SDS011;25517;52.422;10.782;2023-08-31T11:55:50;3.85;;;1.70;;
39846;SDS011;25517;52.422;10.782;2023-08-31T11:58:17;3.08;;;1.90;;
39846;SDS011;25517;52.422;10.782;2023-08-31T12:00:43;3.13;;;1.80;;
39846;SDS011;25517;52.422;10.782;2023-08-31T12:03:09;2.88;;;1.60;;
39846;SDS011;25517;52.422;10.782;2023-08-31T12:05:44;2.42;;;1.60;;
39846;SDS011;25517;52.422;10.782;2023-08-31T12:08:10;4.63;;;2.20;;
39846;SDS011;25517;52.422;10.782;2023-08-31T12:10:39;4.03;;;1.83;;
39846;SDS011;25517;52.422;10.782;2023-08-31T12:13:09;4.68;;;2.45;;
39846;SDS011;25517;52.422;10.782;2023-08-31T12:15:38;3.47;;;2.05;;
39846;SDS011;25517;52.422;10.782;2023-08-31T12:18:10;4.13;;;2.30;;
39846;SDS011;25517;52.422;10.782;2023-08-31T12:20:46;7.53;;;2.67;;
39846;SDS011;25517;52.422;10.782;2023-08-31T12:23:13;3.80;;;2.33;;
39846;SDS011;25517;52.422;10.782;2023-08-31T12:25:48;5.25;;;2.55;;
39846;SDS011;25517;52.422;10.782;2023-08-31T12:28:15;4.43;;;2.20;;
39846;SDS011;25517;52.422;10.782;2023-08-31T12:30:48;5.22;;;3.78;;
39846;SDS011;25517;52.422;10.782;2023-08-31T12:33:15;3.05;;;2.50;;
39846;SDS011;25517;52.422;10.782;2023-08-31T12:35:41;6.07;;;2.90;;
39846;SDS011;25517;52.422;10.782;2023-08-31T12:38:07;3.13;;;2.55;;
39846;SDS011;25517;52.422;10.782;2023-08-31T12:40:33;3.63;;;2.80;;
39846;SDS011;25517;52.422;10.782;2023-08-31T12:42:58;2.30;;;2.10;;
39846;SDS011;25517;52.422;10.782;2023-08-31T12:45:24;3.42;;;2.42;;
39846;SDS011;25517;52.422;10.782;2023-08-31T12:47:49;3.10;;;2.50;;
39846;SDS011;25517;52.422;10.782;2023-08-31T12:50:15;4.88;;;3.03;;
39846;SDS011;25517;52.422;10.782;2023-08-31T12:52:40;3.40;;;2.50;;
39846;SDS011;25517;52.422;10.782;2023-08-31T12:55:11;4.15;;;2.60;;
39846;SDS011;25517;52.422;10.782;2023-08-31T12:57:40;3.17;;;2.20;;
39846;SDS011;25517;52.422;10.782;2023-08-31T13:00:09;3.00;;;2.50;;
39846;SDS011;25517;52.422;10.782;2023-08-31T13:02:38;5.10;;;2.70;;
39846;SDS011;25517;52.422;10.782;2023-08-31T13:05:05;4.20;;;3.00;;
39846;SDS011;25517;52.422;10.782;2023-08-31T13:07:36;4.15;;;2.45;;
39846;SDS011;25517;52.422;10.782;2023-08-31T13:10:02;3.20;;;2.35;;
39846;SDS011;25517;52.422;10.782;2023-08-31T13:12:31;3.13;;;2.15;;
39846;SDS011;25517;52.422;10.782;2023-08-31T13:14:58;4.10;;;2.17;;
39846;SDS011;25517;52.422;10.782;2023-08-31T13:17:24;3.30;;;2.30;;
39846;SDS011;25517;52.422;10.782;2023-08-31T13:19:53;3.17;;;2.08;;
39846;SDS011;25517;52.422;10.782;2023-08-31T13:22:19;4.10;;;2.00;;
39846;SDS011;25517;52.422;10.782;2023-08-31T13:24:45;1.98;;;1.60;;
39846;SDS011;25517;52.422;10.782;2023-08-31T13:27:11;2.88;;;1.40;;
39846;SDS011;25517;52.422;10.782;2023-08-31T13:29:38;1.48;;;1.10;;
39846;SDS011;25517;52.422;10.782;2023-08-31T13:32:04;2.22;;;1.30;;
39846;SDS011;25517;52.422;10.782;2023-08-31T13:34:30;2.67;;;1.42;;
39846;SDS011;25517;52.422;10.782;2023-08-31T13:36:55;2.30;;;1.63;;
39846;SDS011;25517;52.422;10.782;2023-08-31T13:39:21;2.30;;;1.50;;
39846;SDS011;25517;52.422;10.782;2023-08-31T13:41:49;3.78;;;1.92;;
39846;SDS011;25517;52.422;10.782;2023-08-31T13:44:16;2.45;;;1.77;;
39846;SDS011;25517;52.422;10.782;2023-08-31T13:46:42;5.20;;;1.73;;
39846;SDS011;25517;52.422;10.782;2023-08-31T13:49:07;3.63;;;2.20;;
39846;SDS011;25517;52.422;10.782;2023-08-31T13:51:33;3.47;;;2.10;;
39846;SDS011;25517;52.422;10.782;2023-08-31T13:53:58;5.53;;;2.83;;
39846;SDS011;25517;52.422;10.782;2023-08-31T13:56:28;5.20;;;2.30;;
39846;SDS011;25517;52.422;10.782;2023-08-31T13:58:54;6.28;;;3.30;;
39846;SDS011;25517;52.422;10.782;2023-08-31T14:01:19;4.70;;;2.65;;
39846;SDS011;25517;52.422;10.782;2023-08-31T14:03:45;3.25;;;2.25;;
39846;SDS011;25517;52.422;10.782;2023-08-31T14:06:10;4.15;;;2.00;;
39846;SDS011;25517;52.422;10.782;2023-08-31T14:08:36;3.75;;;2.05;;
39846;SDS011;25517;52.422;10.782;2023-08-31T14:11:02;4.85;;;1.90;;
39846;SDS011;25517;52.422;10.782;2023-08-31T14:13:28;2.75;;;1.77;;
39846;SDS011;25517;52.422;10.782;2023-08-31T14:15:53;3.92;;;2.20;;
39846;SDS011;25517;52.422;10.782;2023-08-31T14:18:19;4.13;;;2.08;;
39846;SDS011;25517;52.422;10.782;2023-08-31T14:20:44;1.90;;;1.80;;
39846;SDS011;25517;52.422;10.782;2023-08-31T14:23:10;2.38;;;1.63;;
39846;SDS011;25517;52.422;10.782;2023-08-31T14:25:36;2.00;;;1.65;;
39846;SDS011;25517;52.422;10.782;2023-08-31T14:28:03;2.67;;;1.77;;
39846;SDS011;25517;52.422;10.782;2023-08-31T14:30:29;3.10;;;2.00;;
39846;SDS011;25517;52.422;10.782;2023-08-31T14:32:55;4.55;;;2.42;;
39846;SDS011;25517;52.422;10.782;2023-08-31T14:35:20;2.35;;;2.13;;
39846;SDS011;25517;52.422;10.782;2023-08-31T14:37:46;5.60;;;2.90;;
39846;SDS011;25517;52.422;10.782;2023-08-31T14:40:11;3.97;;;2.90;;
39846;SDS011;25517;52.422;10.782;2023-08-31T14:42:37;9.02;;;2.50;;
39846;SDS011;25517;52.422;10.782;2023-08-31T14:45:03;5.53;;;2.67;;
39846;SDS011;25517;52.422;10.782;2023-08-31T14:47:29;6.03;;;2.00;;
39846;SDS011;25517;52.422;10.782;2023-08-31T14:49:55;6.93;;;2.35;;
39846;SDS011;25517;52.422;10.782;2023-08-31T14:52:20;2.28;;;1.60;;
39846;SDS011;25517;52.422;10.782;2023-08-31T14:54:46;2.83;;;1.35;;
39846;SDS011;25517;52.422;10.782;2023-08-31T14:57:11;3.60;;;1.77;;
39846;SDS011;25517;52.422;10.782;2023-08-31T14:59:38;2.97;;;1.58;;
39846;SDS011;25517;52.422;10.782;2023-08-31T15:02:03;1.73;;;1.38;;
39846;SDS011;25517;52.422;10.782;2023-08-31T15:04:30;3.00;;;1.65;;
39846;SDS011;25517;52.422;10.782;2023-08-31T15:06:56;4.68;;;2.45;;
39846;SDS011;25517;52.422;10.782;2023-08-31T15:09:23;5.95;;;2.72;;
39846;SDS011;25517;52.422;10.782;2023-08-31T15:11:49;3.92;;;2.20;;
39846;SDS011;25517;52.422;10.782;2023-08-31T15:14:15;3.90;;;2.20;;
39846;SDS011;25517;52.422;10.782;2023-08-31T15:16:40;3.28;;;1.90;;
39846;SDS011;25517;52.422;10.782;2023-08-31T15:19:06;3.15;;;2.03;;
39846;SDS011;25517;52.422;10.782;2023-08-31T15:21:32;3.65;;;1.95;;
39846;SDS011;25517;52.422;10.782;2023-08-31T15:23:58;4.50;;;2.75;;
39846;SDS011;25517;52.422;10.782;2023-08-31T15:26:23;4.95;;;2.45;;
39846;SDS011;25517;52.422;10.782;2023-08-31T15:28:50;2.20;;;1.70;;
39846;SDS011;25517;52.422;10.782;2023-08-31T15:31:16;1.52;;;1.10;;
39846;SDS011;25517;52.422;10.782;2023-08-31T15:33:42;3.22;;;1.40;;
39846;SDS011;25517;52.422;10.782;2023-08-31T15:36:08;3.67;;;1.40;;
39846;SDS011;25517;52.422;10.782;2023-08-31T15:38:35;3.60;;;1.50;;
39846;SDS011;25517;52.422;10.782;2023-08-31T15:41:02;1.50;;;1.10;;
39846;SDS011;25517;52.422;10.782;2023-08-31T15:43:30;2.80;;;1.30;;
39846;SDS011;25517;52.422;10.782;2023-08-31T15:45:57;6.47;;;2.15;;
39846;SDS011;25517;52.422;10.782;2023-08-31T15:48:24;2.05;;;1.13;;